createdAt,value
2023-05-06T00:00:37.747Z,91.25
2023-05-06T00:03:11.214Z,91.90
2023-05-06T00:05:46.362Z,91.94
2023-05-06T00:08:16.960Z,91.81
2023-05-06T00:10:47.003Z,92.34
2023-05-06T00:13:16.338Z,92.24
2023-05-06T00:15:51.507Z,91.81
2023-05-06T00:18:22.441Z,92.04
2023-05-06T00:20:50.867Z,92.09
2023-05-06T00:23:22.736Z,92.13
2023-05-06T00:26:05.591Z,92.62
2023-05-06T00:28:37.420Z,92.58
2023-05-06T00:31:11.168Z,93.18
2023-05-06T00:33:44.681Z,93.20
2023-05-06T00:36:13.508Z,93.22
2023-05-06T00:38:46.801Z,93.88
2023-05-06T00:41:16.390Z,93.24
2023-05-06T00:43:46.930Z,93.70
2023-05-06T00:46:18.281Z,92.96
2023-05-06T00:48:55.838Z,92.80
2023-05-06T00:51:28.523Z,93.66
2023-05-06T00:54:00.033Z,92.91
2023-05-06T00:56:34.817Z,93.13
2023-05-06T00:59:08.107Z,93.27
2023-05-06T01:01:40.170Z,92.81
2023-05-06T01:04:11.049Z,93.18
2023-05-06T01:06:58.201Z,93.32
2023-05-06T01:09:33.939Z,93.46
2023-05-06T01:12:11.178Z,92.90
2023-05-06T01:14:49.044Z,92.77
2023-05-06T01:17:24.863Z,93.81
2023-05-06T01:20:04.220Z,93.08
2023-05-06T01:22:35.568Z,93.13
2023-05-06T01:25:11.881Z,92.80
2023-05-06T01:27:41.764Z,93.12
2023-05-06T01:30:15.141Z,93.83
2023-05-06T01:33:02.753Z,94.20
2023-05-06T01:35:37.565Z,95.25
2023-05-06T01:38:18.962Z,95.45
2023-05-06T01:40:56.857Z,95.66
2023-05-06T01:43:29.549Z,95.52
2023-05-06T01:46:04.268Z,95.49
2023-05-06T01:48:37.807Z,95.51
2023-05-06T01:51:06.719Z,95.71
2023-05-06T01:53:37.842Z,95.73
2023-05-06T01:56:12.114Z,95.72
2023-05-06T01:58:43.063Z,95.73
2023-05-06T02:01:15.480Z,95.77
2023-05-06T02:03:45.539Z,95.92
2023-05-06T02:06:20.989Z,95.66
2023-05-06T02:08:52.015Z,95.72
2023-05-06T02:11:24.708Z,95.71
2023-05-06T02:13:55.092Z,95.99
2023-05-06T02:16:29.562Z,95.67
2023-05-06T02:19:00.230Z,95.64
2023-05-06T02:21:29.361Z,95.54
2023-05-06T02:24:01.334Z,95.56
2023-05-06T02:26:32.370Z,95.32
2023-05-06T02:29:03.042Z,95.38
2023-05-06T02:31:35.428Z,95.27
2023-05-06T02:34:15.369Z,95.33
2023-05-06T02:36:45.637Z,95.55
2023-05-06T02:39:15.484Z,94.23
2023-05-06T02:41:47.324Z,94.90
2023-05-06T02:44:18.044Z,95.40
2023-05-06T02:46:51.116Z,95.61
2023-05-06T02:49:23.662Z,95.59
2023-05-06T02:51:52.262Z,95.72
2023-05-06T02:54:27.315Z,95.91
2023-05-06T02:56:58.369Z,95.96
2023-05-06T02:59:30.951Z,96.41
2023-05-06T03:02:02.207Z,96.49
2023-05-06T03:04:34.040Z,96.64
2023-05-06T03:07:03.827Z,96.78
2023-05-06T03:09:33.838Z,96.26
2023-05-06T03:12:06.472Z,96.16
2023-05-06T03:14:36.699Z,96.44
2023-05-06T03:17:11.427Z,96.54
2023-05-06T03:19:39.573Z,96.58
2023-05-06T03:22:07.870Z,96.46
2023-05-06T03:24:37.651Z,96.45
2023-05-06T03:27:08.675Z,96.29
2023-05-06T03:29:41.368Z,96.19
2023-05-06T03:32:17.767Z,96.53
2023-05-06T03:34:49.282Z,96.36
2023-05-06T03:37:21.204Z,96.18
2023-05-06T03:39:49.395Z,96.25
2023-05-06T03:42:24.380Z,96.38
2023-05-06T03:44:57.096Z,96.26
2023-05-06T03:47:29.831Z,96.08
2023-05-06T03:50:00.831Z,95.95
2023-05-06T03:52:31.637Z,95.95
2023-05-06T03:55:02.348Z,95.52
2023-05-06T03:57:33.436Z,96.07
2023-05-06T04:00:03.721Z,96.17
2023-05-06T04:02:38.524Z,95.89
2023-05-06T04:05:08.087Z,95.34
2023-05-06T04:07:40.770Z,94.96
2023-05-06T04:10:12.147Z,94.98
2023-05-06T04:12:42.793Z,95.38
2023-05-06T04:15:14.050Z,94.84
2023-05-06T04:17:47.065Z,95.47
2023-05-06T04:20:17.793Z,95.03
2023-05-06T04:22:47.969Z,95.03
2023-05-06T04:25:18.533Z,94.63
2023-05-06T04:27:49.981Z,94.32
2023-05-06T04:30:22.586Z,94.02
2023-05-06T04:32:56.615Z,93.34
2023-05-06T04:35:27.058Z,93.00
2023-05-06T04:37:58.438Z,92.48
2023-05-06T04:40:31.153Z,92.79
2023-05-06T04:43:06.083Z,92.89
2023-05-06T04:45:40.414Z,93.10
2023-05-06T04:48:11.399Z,92.21
2023-05-06T04:50:43.477Z,92.24
2023-05-06T04:53:11.717Z,92.20
2023-05-06T04:55:44.476Z,91.69
2023-05-06T04:58:15.530Z,91.63
2023-05-06T05:00:46.276Z,91.73
2023-05-06T05:03:14.822Z,91.30
2023-05-06T05:05:43.189Z,91.13
2023-05-06T05:08:15.429Z,91.23
2023-05-06T05:10:45.297Z,90.90
2023-05-06T05:13:19.307Z,91.05
2023-05-06T05:15:48.235Z,90.94
2023-05-06T05:18:17.496Z,90.98
2023-05-06T05:20:48.074Z,90.67
2023-05-06T05:23:20.262Z,90.81
2023-05-06T05:25:48.809Z,90.73
2023-05-06T05:28:19.890Z,90.83
2023-05-06T05:30:55.154Z,90.27
2023-05-06T05:33:26.271Z,90.14
2023-05-06T05:36:01.092Z,89.66
2023-05-06T05:38:31.149Z,88.94
2023-05-06T05:41:00.533Z,89.45
2023-05-06T05:43:33.635Z,88.87
2023-05-06T05:46:03.659Z,88.50
2023-05-06T05:48:33.739Z,88.44
2023-05-06T05:51:03.249Z,87.93
2023-05-06T05:53:32.628Z,87.25
2023-05-06T05:56:02.867Z,87.22
2023-05-06T05:58:36.484Z,87.29
2023-05-06T06:01:06.204Z,87.47
2023-05-06T06:03:34.922Z,87.24
2023-05-06T06:06:03.645Z,85.99
2023-05-06T06:08:40.423Z,85.55
2023-05-06T06:11:10.758Z,84.33
2023-05-06T06:13:43.145Z,83.27
2023-05-06T06:16:14.132Z,82.78
2023-05-06T06:18:46.583Z,82.27
2023-05-06T06:21:18.178Z,81.77
2023-05-06T06:23:51.121Z,81.17
2023-05-06T06:26:21.541Z,82.27
2023-05-06T06:28:52.981Z,80.55
2023-05-06T06:31:27.906Z,78.31
2023-05-06T06:34:00.145Z,78.84
2023-05-06T06:36:32.001Z,78.75
2023-05-06T06:39:03.490Z,78.14
2023-05-06T06:41:33.661Z,76.43
2023-05-06T06:44:08.469Z,77.29
2023-05-06T06:46:42.997Z,75.35
2023-05-06T06:49:17.492Z,75.59
2023-05-06T06:51:47.612Z,75.07
2023-05-06T06:54:19.346Z,75.03
2023-05-06T06:56:54.673Z,74.48
2023-05-06T06:59:26.425Z,74.13
2023-05-06T07:01:57.460Z,73.92
2023-05-06T07:04:31.323Z,73.80
2023-05-06T07:07:01.767Z,73.37
2023-05-06T07:09:35.773Z,72.80
2023-05-06T07:12:09.853Z,72.44
2023-05-06T07:14:41.495Z,72.15
2023-05-06T07:17:11.729Z,71.58
2023-05-06T07:19:41.561Z,72.51
2023-05-06T07:22:10.517Z,71.19
2023-05-06T07:24:41.470Z,72.09
2023-05-06T07:27:13.370Z,71.94
2023-05-06T07:29:49.995Z,69.52
2023-05-06T07:32:21.856Z,69.28
2023-05-06T07:34:54.437Z,69.67
2023-05-06T07:37:30.353Z,68.16
2023-05-06T07:40:00.800Z,68.36
2023-05-06T07:42:43.266Z,67.63
2023-05-06T07:45:14.113Z,69.34
2023-05-06T07:47:47.219Z,67.12
2023-05-06T07:50:16.020Z,67.43
2023-05-06T07:52:46.242Z,66.98
2023-05-06T07:55:20.652Z,66.22
2023-05-06T07:57:50.555Z,67.04
2023-05-06T08:00:29.365Z,66.27
2023-05-06T08:03:00.269Z,65.55
2023-05-06T08:05:33.790Z,65.93
2023-05-06T08:08:10.030Z,65.23
2023-05-06T08:10:44.108Z,65.57
2023-05-06T08:13:14.643Z,65.13
2023-05-06T08:15:46.582Z,65.68
2023-05-06T08:18:22.338Z,66.20
2023-05-06T08:20:52.864Z,65.25
2023-05-06T08:23:23.617Z,64.48
2023-05-06T08:25:54.240Z,64.37
2023-05-06T08:28:25.721Z,64.55
2023-05-06T08:30:57.494Z,64.88
2023-05-06T08:33:27.681Z,63.84
2023-05-06T08:36:00.418Z,63.74
2023-05-06T08:38:28.836Z,64.18
2023-05-06T08:41:04.704Z,62.56
2023-05-06T08:43:34.926Z,62.69
2023-05-06T08:46:12.267Z,62.84
2023-05-06T08:48:43.059Z,62.79
2023-05-06T08:51:19.247Z,63.48
2023-05-06T08:53:49.514Z,62.24
2023-05-06T08:56:23.630Z,62.01
2023-05-06T08:58:53.844Z,61.25
2023-05-06T09:01:28.188Z,62.20
2023-05-06T09:03:59.119Z,60.72
2023-05-06T09:06:28.110Z,60.97
2023-05-06T09:08:57.806Z,60.01
2023-05-06T09:11:30.377Z,62.13
2023-05-06T09:14:14.809Z,60.77
2023-05-06T09:16:51.475Z,61.88
2023-05-06T09:19:23.343Z,59.59
2023-05-06T09:21:52.720Z,58.83
2023-05-06T09:24:22.720Z,58.47
2023-05-06T09:26:58.109Z,58.55
2023-05-06T09:29:29.524Z,58.37
2023-05-06T09:32:12.602Z,58.28
2023-05-06T09:34:47.871Z,58.02
2023-05-06T09:37:24.858Z,60.94
2023-05-06T09:39:56.239Z,60.47
2023-05-06T09:42:28.451Z,58.95
2023-05-06T09:45:01.290Z,60.02
2023-05-06T09:47:41.848Z,61.24
2023-05-06T09:50:15.968Z,59.68
2023-05-06T09:52:49.447Z,58.36
2023-05-06T09:55:22.252Z,56.84
2023-05-06T09:57:55.547Z,53.54
2023-05-06T10:00:32.471Z,53.29
2023-05-06T10:03:04.434Z,53.11
2023-05-06T10:05:38.308Z,53.73
2023-05-06T10:08:10.664Z,53.21
2023-05-06T10:10:42.089Z,53.27
2023-05-06T10:13:14.424Z,52.01
2023-05-06T10:15:45.327Z,52.89
2023-05-06T10:18:18.115Z,52.37
2023-05-06T10:20:47.808Z,49.96
2023-05-06T10:23:29.687Z,48.35
2023-05-06T10:26:08.642Z,48.32
2023-05-06T10:28:43.122Z,48.92
2023-05-06T10:31:16.151Z,49.27
2023-05-06T10:33:55.435Z,50.38
2023-05-06T10:36:28.839Z,50.86
2023-05-06T10:39:00.715Z,49.85
2023-05-06T10:41:39.328Z,47.97
2023-05-06T10:44:10.655Z,50.04
2023-05-06T10:47:00.584Z,49.46
2023-05-06T10:49:30.488Z,48.57
2023-05-06T10:52:15.175Z,46.96
2023-05-06T10:54:51.102Z,49.10
2023-05-06T10:57:20.805Z,49.61
2023-05-06T10:59:51.453Z,50.37
2023-05-06T11:02:22.316Z,50.41
2023-05-06T11:05:03.603Z,49.86
2023-05-06T11:07:37.414Z,50.09
2023-05-06T11:10:08.213Z,49.83
2023-05-06T11:12:51.403Z,48.87
2023-05-06T11:15:28.679Z,49.34
2023-05-06T11:18:00.676Z,50.65
2023-05-06T11:20:30.770Z,48.41
2023-05-06T11:23:02.308Z,47.56
2023-05-06T11:25:43.615Z,48.32
2023-05-06T11:28:20.105Z,48.23
2023-05-06T11:30:57.345Z,47.88
2023-05-06T11:33:29.154Z,45.98
2023-05-06T11:36:00.979Z,45.30
2023-05-06T11:38:45.689Z,45.27
2023-05-06T11:41:16.701Z,47.14
2023-05-06T11:43:53.616Z,48.97
2023-05-06T11:46:23.542Z,49.31
2023-05-06T11:49:00.928Z,50.95
2023-05-06T11:51:33.760Z,50.19
2023-05-06T11:54:08.033Z,49.56
2023-05-06T11:56:56.277Z,49.00
2023-05-06T11:59:34.651Z,48.03
2023-05-06T12:02:06.568Z,48.57
2023-05-06T12:04:42.483Z,48.90
2023-05-06T12:07:18.956Z,50.21
2023-05-06T12:09:49.932Z,51.48
2023-05-06T12:12:28.118Z,49.61
2023-05-06T12:14:58.380Z,50.18
2023-05-06T12:17:28.767Z,52.29
2023-05-06T12:19:57.846Z,51.66
2023-05-06T12:22:30.809Z,51.56
2023-05-06T12:25:17.466Z,51.55
2023-05-06T12:27:47.504Z,51.40
2023-05-06T12:30:29.667Z,52.43
2023-05-06T12:33:03.992Z,51.17
2023-05-06T12:35:33.798Z,52.38
2023-05-06T12:38:13.276Z,50.81
2023-05-06T12:40:43.573Z,52.39
2023-05-06T12:43:14.031Z,52.58
2023-05-06T12:45:48.460Z,52.58
2023-05-06T12:48:25.323Z,52.03
2023-05-06T12:50:56.589Z,52.27
2023-05-06T12:53:42.651Z,52.56
2023-05-06T12:56:14.962Z,52.27
2023-05-06T12:58:45.960Z,52.21
2023-05-06T13:01:24.255Z,51.78
2023-05-06T13:03:56.150Z,51.88
2023-05-06T13:06:25.117Z,52.73
2023-05-06T13:08:58.607Z,52.32
2023-05-06T13:11:29.121Z,52.35
2023-05-06T13:13:59.286Z,52.11
2023-05-06T13:16:27.834Z,53.33
2023-05-06T13:19:02.107Z,51.71
2023-05-06T13:21:34.461Z,51.57
2023-05-06T13:24:07.475Z,51.88
2023-05-06T13:26:38.714Z,51.76
2023-05-06T13:29:11.077Z,50.31
2023-05-06T13:31:42.536Z,50.55
2023-05-06T13:34:13.453Z,51.28
2023-05-06T13:36:43.875Z,53.18
2023-05-06T13:39:16.638Z,53.47
2023-05-06T13:41:54.839Z,53.72
2023-05-06T13:44:29.086Z,54.08
2023-05-06T13:47:00.141Z,54.73
2023-05-06T13:49:33.609Z,54.82
2023-05-06T13:52:05.206Z,55.35
2023-05-06T13:54:38.798Z,58.56
2023-05-06T13:57:07.668Z,60.76
2023-05-06T13:59:37.588Z,63.18
2023-05-06T14:02:10.614Z,64.11
2023-05-06T14:04:43.261Z,65.02
2023-05-06T14:07:13.523Z,65.67
2023-05-06T14:09:49.854Z,66.91
2023-05-06T14:12:20.154Z,67.00
2023-05-06T14:14:49.478Z,67.12
2023-05-06T14:17:19.970Z,66.74
2023-05-06T14:19:50.336Z,66.78
2023-05-06T14:22:20.495Z,67.75
2023-05-06T14:24:51.880Z,67.99
2023-05-06T14:27:22.941Z,67.74
2023-05-06T14:29:52.992Z,68.10
2023-05-06T14:32:22.824Z,68.35
2023-05-06T14:34:56.770Z,68.63
2023-05-06T14:37:27.699Z,68.86
2023-05-06T14:39:59.910Z,69.22
2023-05-06T14:42:28.115Z,69.72
2023-05-06T14:45:00.433Z,70.17
2023-05-06T14:47:28.579Z,70.68
2023-05-06T14:50:00.900Z,71.11
2023-05-06T14:52:31.440Z,72.38
2023-05-06T14:55:03.180Z,73.90
2023-05-06T14:57:31.886Z,75.41
2023-05-06T15:00:03.288Z,77.39
2023-05-06T15:02:35.952Z,78.41
2023-05-06T15:05:09.996Z,80.03
2023-05-06T15:07:39.375Z,79.58
2023-05-06T15:10:11.121Z,80.09
2023-05-06T15:12:42.696Z,80.29
2023-05-06T15:15:15.884Z,81.25
2023-05-06T15:17:48.891Z,81.07
2023-05-06T15:20:19.170Z,82.27
2023-05-06T15:22:49.583Z,81.37
2023-05-06T15:25:33.979Z,81.76
2023-05-06T15:28:07.214Z,81.62
2023-05-06T15:30:40.048Z,81.90
2023-05-06T15:33:12.052Z,81.32
2023-05-06T15:35:44.751Z,80.61
2023-05-06T15:38:15.481Z,80.53
2023-05-06T15:40:55.056Z,80.90
2023-05-06T15:43:24.829Z,80.63
2023-05-06T15:46:00.398Z,81.15
2023-05-06T15:48:33.039Z,80.03
2023-05-06T15:51:08.750Z,80.03
2023-05-06T15:53:41.307Z,80.06
2023-05-06T15:56:18.154Z,80.03
2023-05-06T15:58:52.002Z,79.97
2023-05-06T16:01:47.919Z,80.20
2023-05-06T16:04:17.509Z,79.76
2023-05-06T16:06:51.394Z,78.21
2023-05-06T16:09:20.467Z,77.40
2023-05-06T16:11:54.951Z,77.58
2023-05-06T16:14:24.960Z,77.36
2023-05-06T16:16:57.733Z,77.14
2023-05-06T16:19:27.645Z,76.77
2023-05-06T16:22:03.399Z,76.09
2023-05-06T16:24:34.931Z,74.96
2023-05-06T16:27:06.803Z,73.50
2023-05-06T16:29:35.471Z,71.93
2023-05-06T16:32:09.023Z,71.43
2023-05-06T16:34:40.352Z,72.55
2023-05-06T16:37:10.011Z,72.62
2023-05-06T16:39:39.542Z,72.86
2023-05-06T16:42:14.229Z,71.88
2023-05-06T16:44:44.915Z,73.05
2023-05-06T16:47:13.528Z,73.35
2023-05-06T16:49:41.839Z,74.69
2023-05-06T16:52:14.210Z,73.85
2023-05-06T16:54:49.373Z,74.71
2023-05-06T16:57:20.753Z,74.81
2023-05-06T16:59:52.513Z,75.27
2023-05-06T17:02:23.579Z,75.74
2023-05-06T17:04:52.079Z,76.40
2023-05-06T17:07:26.077Z,76.44
2023-05-06T17:09:55.280Z,77.02
2023-05-06T17:12:28.712Z,77.30
2023-05-06T17:15:00.786Z,77.22
2023-05-06T17:17:33.305Z,77.71
2023-05-06T17:20:09.330Z,78.01
2023-05-06T17:22:39.073Z,78.23
2023-05-06T17:25:10.323Z,78.64
2023-05-06T17:27:41.923Z,79.00
2023-05-06T17:30:14.592Z,79.46
2023-05-06T17:32:43.715Z,79.90
2023-05-06T17:35:13.883Z,80.02
2023-05-06T17:37:45.274Z,80.15
2023-05-06T17:40:16.541Z,80.27
2023-05-06T17:42:51.190Z,80.93
2023-05-06T17:45:25.329Z,81.39
2023-05-06T17:47:56.753Z,81.44
2023-05-06T17:50:28.032Z,81.49
2023-05-06T17:52:56.440Z,81.57
2023-05-06T17:55:29.163Z,81.93
2023-05-06T17:58:01.130Z,82.48
2023-05-06T18:00:33.547Z,83.08
2023-05-06T18:03:04.392Z,83.49
2023-05-06T18:05:34.083Z,84.01
2023-05-06T18:08:07.088Z,84.28
2023-05-06T18:10:37.551Z,84.51
2023-05-06T18:13:11.566Z,84.55
2023-05-06T18:15:43.641Z,84.27
2023-05-06T18:18:16.820Z,84.40
2023-05-06T18:20:45.924Z,84.38
2023-05-06T18:23:16.168Z,84.90
2023-05-06T18:25:46.663Z,84.65
2023-05-06T18:28:19.316Z,84.59
2023-05-06T18:30:51.575Z,84.20
2023-05-06T18:33:22.278Z,83.85
2023-05-06T18:35:50.448Z,84.03
2023-05-06T18:38:21.529Z,84.32
2023-05-06T18:40:52.326Z,84.98
2023-05-06T18:43:28.052Z,85.11
2023-05-06T18:46:01.395Z,85.44
2023-05-06T18:48:32.144Z,85.62
2023-05-06T18:51:18.700Z,86.09
2023-05-06T18:53:54.753Z,85.78
2023-05-06T18:56:27.521Z,86.17
2023-05-06T18:59:00.033Z,86.50
2023-05-06T19:01:31.285Z,86.47
2023-05-06T19:04:03.239Z,87.25
2023-05-06T19:06:32.619Z,87.54
2023-05-06T19:09:07.322Z,87.33
2023-05-06T19:11:39.293Z,87.12
2023-05-06T19:14:13.751Z,87.28
2023-05-06T19:16:49.282Z,87.38
2023-05-06T19:19:24.528Z,87.19
2023-05-06T19:21:54.899Z,87.28
2023-05-06T19:24:27.830Z,87.42
2023-05-06T19:27:03.079Z,87.27
2023-05-06T19:29:33.780Z,86.97
2023-05-06T19:32:04.139Z,86.30
2023-05-06T19:34:33.620Z,86.83
2023-05-06T19:37:12.236Z,86.66
2023-05-06T19:39:42.709Z,87.33
2023-05-06T19:42:17.147Z,87.47
2023-05-06T19:44:52.157Z,87.54
2023-05-06T19:47:23.243Z,87.05
2023-05-06T19:49:55.845Z,86.64
2023-05-06T19:52:30.031Z,86.86
2023-05-06T19:55:01.619Z,87.08
2023-05-06T19:57:34.761Z,87.55
2023-05-06T20:00:10.721Z,87.60
2023-05-06T20:02:41.956Z,87.07
2023-05-06T20:05:11.668Z,87.74
2023-05-06T20:07:43.997Z,86.57
2023-05-06T20:10:32.987Z,86.50
2023-05-06T20:13:05.585Z,86.56
2023-05-06T20:15:37.409Z,86.43
2023-05-06T20:18:07.909Z,86.41
2023-05-06T20:20:42.489Z,86.70
2023-05-06T20:23:13.112Z,86.63
2023-05-06T20:25:42.317Z,86.98
2023-05-06T20:28:17.634Z,87.23
2023-05-06T20:30:55.599Z,87.98
2023-05-06T20:33:24.153Z,88.20
2023-05-06T20:35:53.451Z,88.13
2023-05-06T20:38:27.178Z,87.96
2023-05-06T20:40:59.671Z,87.84
2023-05-06T20:43:30.446Z,87.96
2023-05-06T20:46:06.967Z,88.00
2023-05-06T20:48:37.791Z,88.59
2023-05-06T20:51:08.264Z,89.01
2023-05-06T20:53:38.733Z,88.48
2023-05-06T20:56:18.491Z,88.96
2023-05-06T20:58:55.479Z,89.36
2023-05-06T21:01:32.050Z,89.24
2023-05-06T21:04:04.781Z,89.03
2023-05-06T21:06:35.654Z,88.33
2023-05-06T21:09:05.238Z,88.63
2023-05-06T21:11:41.565Z,89.59
2023-05-06T21:14:11.951Z,89.54
2023-05-06T21:16:45.208Z,89.64
2023-05-06T21:19:15.859Z,89.47
2023-05-06T21:21:48.698Z,89.48
2023-05-06T21:24:18.473Z,89.72
2023-05-06T21:26:53.161Z,89.50
2023-05-06T21:29:21.744Z,89.43
2023-05-06T21:31:54.881Z,89.46
2023-05-06T21:34:23.728Z,89.42
2023-05-06T21:36:57.856Z,89.66
2023-05-06T21:39:28.399Z,89.18
2023-05-06T21:42:02.803Z,88.59
2023-05-06T21:44:33.321Z,89.13
2023-05-06T21:47:05.053Z,88.66
2023-05-06T21:49:34.995Z,88.50
2023-05-06T21:52:10.901Z,88.94
2023-05-06T21:54:40.951Z,89.39
2023-05-06T21:57:20.888Z,89.54
2023-05-06T21:59:55.180Z,89.81
2023-05-06T22:02:27.486Z,89.72
2023-05-06T22:04:57.987Z,89.83
2023-05-06T22:07:27.277Z,90.02
2023-05-06T22:09:55.825Z,90.34
2023-05-06T22:12:26.318Z,90.72
2023-05-06T22:14:59.162Z,91.25
2023-05-06T22:17:36.614Z,91.23
2023-05-06T22:20:11.127Z,91.60
2023-05-06T22:22:43.141Z,91.85
2023-05-06T22:25:12.727Z,92.89
2023-05-06T22:27:41.908Z,92.51
2023-05-06T22:30:18.167Z,92.17
2023-05-06T22:32:51.361Z,91.99
2023-05-06T22:35:23.520Z,91.61
2023-05-06T22:37:56.615Z,91.97
2023-05-06T22:40:28.383Z,91.96
2023-05-06T22:43:04.294Z,91.65
2023-05-06T22:45:40.385Z,91.55
2023-05-06T22:48:16.991Z,91.32
2023-05-06T22:50:48.398Z,91.23
2023-05-06T22:53:19.051Z,91.28
2023-05-06T22:56:00.719Z,91.40
2023-05-06T22:58:30.104Z,91.14
2023-05-06T23:00:58.330Z,90.86
2023-05-06T23:03:31.745Z,91.11
2023-05-06T23:06:00.066Z,90.96
2023-05-06T23:08:28.770Z,90.97
2023-05-06T23:10:59.573Z,92.01
2023-05-06T23:13:36.083Z,92.20
2023-05-06T23:16:07.894Z,92.33
2023-05-06T23:18:40.378Z,92.71
2023-05-06T23:21:13.909Z,92.70
2023-05-06T23:23:48.777Z,92.63
2023-05-06T23:26:19.780Z,93.15
2023-05-06T23:28:55.003Z,92.68
2023-05-06T23:31:25.357Z,93.10
2023-05-06T23:33:57.547Z,93.69
2023-05-06T23:36:30.993Z,94.02
2023-05-06T23:39:00.332Z,93.89
2023-05-06T23:41:29.984Z,94.02
2023-05-06T23:44:06.907Z,93.92
2023-05-06T23:46:39.819Z,93.92
2023-05-06T23:49:12.526Z,93.51
2023-05-06T23:51:41.943Z,93.51
2023-05-06T23:54:10.924Z,93.39
2023-05-06T23:56:45.231Z,93.30
2023-05-06T23:59:20.493Z,93.44
